.
WxDataArchive / Data Records for 2006-09-17
2006-09-16 September 2006 2006-09-18

Data Records for Sunday, 17 September 2006

Time	Temp	Chill	HIndex	Humid	Dewpt	 Wind 	HiWind	WindDir	Rain 	Barom 
-----	----	-----	------	-----	-----	------	------	-------	-----	----- 
00:00	63.2	63.2	63.2	81	57.3	0	2	112	0.00	29.957 
00:05	63.2	63.2	63.2	81	57.3	0	1	112	0.00	29.957 
00:10	63.1	63.1	63.1	81	57.2	0	0	---	0.00	29.957 
00:15	62.7	62.7	62.7	81	56.8	0	0	---	0.00	29.949 
00:20	62.4	62.4	62.4	82	56.8	0	0	---	0.00	29.949 
00:25	62.0	62.0	62.0	83	56.8	0	0	---	0.00	29.949 
00:30	61.6	61.6	61.6	84	56.7	0	1	112	0.00	29.946 
00:35	61.5	61.5	61.5	84	56.6	0	0	---	0.00	29.946 
00:40	61.3	61.3	61.3	85	56.7	0	0	---	0.00	29.946 
00:45	61.3	61.3	61.3	85	56.7	0	0	---	0.00	29.938 
00:50	61.2	61.2	61.2	85	56.6	0	0	---	0.00	29.938 
00:55	61.2	61.2	61.2	85	56.6	0	0	---	0.00	29.938 
01:00	61.2	61.2	61.2	85	56.6	0	1	112	0.00	29.937 
01:05	60.9	60.9	60.9	86	56.7	0	0	---	0.00	29.937 
01:10	60.7	60.7	60.7	86	56.5	0	0	---	0.00	29.937 
01:15	60.2	60.2	60.2	86	56.0	0	0	---	0.00	29.936 
01:20	59.9	59.9	59.9	88	56.3	0	0	---	0.00	29.936 
01:25	59.6	59.6	59.6	88	56.0	0	0	---	0.00	29.936 
01:30	59.3	59.3	59.3	88	55.7	0	0	---	0.00	29.932 
01:35	59.0	59.0	59.0	89	55.8	0	0	---	0.00	29.932 
01:40	58.9	58.9	58.9	89	55.7	0	0	---	0.00	29.932 
01:45	58.6	58.6	58.6	90	55.7	0	0	---	0.00	29.927 
01:50	58.3	58.3	58.3	90	55.4	0	0	---	0.00	29.927 
01:55	58.1	58.1	58.1	90	55.2	0	0	---	0.00	29.927 
02:00	58.0	58.0	58.0	91	55.4	0	0	---	0.00	29.923 
02:05	57.8	57.8	57.8	91	55.2	0	0	---	0.00	29.923 
02:10	57.6	57.6	57.6	92	55.3	0	0	---	0.00	29.923 
02:15	57.5	57.5	57.5	92	55.2	0	0	---	0.00	29.910 
02:20	57.3	57.3	57.3	92	55.0	0	0	---	0.00	29.910 
02:25	57.3	57.3	57.3	92	55.0	0	0	---	0.00	29.910 
02:30	57.3	57.3	57.3	93	55.3	0	0	---	0.00	29.905 
02:35	57.5	57.5	57.5	94	55.8	0	1	112	0.00	29.905 
02:40	57.6	57.6	57.6	94	55.9	0	0	---	0.00	29.905 
02:45	58.1	58.1	58.1	94	56.4	0	1	112	0.00	29.903 
02:50	58.3	58.3	58.3	94	56.6	1	2	112	0.00	29.903 
02:55	58.4	58.4	58.4	93	56.4	0	1	112	0.00	29.903 
03:00	58.4	58.4	58.4	92	56.1	0	1	112	0.00	29.891 
03:05	58.4	58.4	58.4	92	56.1	0	2	112	0.00	29.891 
03:10	58.6	58.6	58.6	92	56.3	0	1	112	0.00	29.891 
03:15	58.6	58.6	58.6	92	56.3	0	1	112	0.00	29.894 
03:20	58.6	58.6	58.6	92	56.3	1	2	112	0.00	29.894 
03:25	58.7	58.7	58.7	92	56.4	1	3	112	0.00	29.894 
03:30	58.6	58.6	58.6	91	56.0	0	1	112	0.00	29.889 
03:35	58.6	58.6	58.6	92	56.3	0	1	112	0.00	29.889 
03:40	58.6	58.6	58.6	92	56.3	0	1	112	0.00	29.889 
03:45	58.4	58.4	58.4	92	56.1	0	1	112	0.00	29.902 
03:50	58.4	58.4	58.4	92	56.1	0	1	112	0.00	29.902 
03:55	58.3	58.3	58.3	92	56.0	0	0	---	0.00	29.902 
04:00	58.0	58.0	58.0	92	55.7	0	0	---	0.00	29.905 
04:05	57.6	57.6	57.6	92	55.3	0	0	---	0.00	29.905 
04:10	57.5	57.5	57.5	92	55.2	0	0	---	0.00	29.905 
04:15	57.2	57.2	57.2	92	54.9	0	0	---	0.00	29.908 
04:20	56.9	56.9	56.9	92	54.6	0	0	---	0.00	29.908 
04:25	56.7	56.7	56.7	92	54.4	0	0	---	0.00	29.908 
04:30	56.5	56.5	56.5	92	54.2	0	0	---	0.00	29.909 
04:35	56.3	56.3	56.3	92	54.0	0	0	---	0.00	29.909 
04:40	56.0	56.0	56.0	93	54.0	0	0	---	0.00	29.909 
04:45	55.9	55.9	55.9	93	53.9	0	0	---	0.00	29.909 
04:50	55.7	55.7	55.7	93	53.7	0	0	---	0.00	29.909 
04:55	55.6	55.6	55.6	93	53.6	0	0	---	0.00	29.909 
05:00	55.6	55.6	55.6	94	53.9	0	0	---	0.00	29.910 
05:05	55.4	55.4	55.4	94	53.7	0	0	---	0.00	29.910 
05:10	55.4	55.4	55.4	94	53.7	0	0	---	0.00	29.910 
05:15	55.3	55.3	55.3	94	53.6	0	0	---	0.00	29.914 
05:20	55.4	55.4	55.4	95	54.0	0	0	---	0.00	29.914 
05:25	55.4	55.4	55.4	95	54.0	0	0	---	0.00	29.914 
05:30	55.3	55.3	55.3	95	53.9	0	0	---	0.00	29.915 
05:35	55.3	55.3	55.3	95	53.9	0	0	---	0.00	29.915 
05:40	55.1	55.1	55.1	95	53.7	0	0	---	0.00	29.915 
05:45	55.0	55.0	55.0	95	53.6	0	0	---	0.00	29.908 
05:50	55.0	55.0	55.0	95	53.6	0	0	---	0.00	29.908 
05:55	55.0	55.0	55.0	95	53.6	0	0	---	0.00	29.908 
06:00	55.0	55.0	55.0	96	53.9	0	0	---	0.00	29.907 
06:05	55.1	55.1	55.1	96	54.0	0	0	---	0.00	29.907 
06:10	55.1	55.1	55.1	96	54.0	0	1	112	0.00	29.907 
06:15	55.6	55.6	55.6	96	54.5	0	1	112	0.00	29.907 
06:20	55.9	55.9	55.9	96	54.8	0	0	---	0.00	29.907 
06:25	55.7	55.7	55.7	96	54.6	0	0	---	0.00	29.907 
06:30	55.6	55.6	55.6	96	54.5	0	0	---	0.00	29.909 
06:35	55.4	55.4	55.4	96	54.3	0	1	112	0.00	29.909 
06:40	55.6	55.6	55.6	96	54.5	0	0	---	0.00	29.909 
06:45	55.6	55.6	55.6	96	54.5	0	0	---	0.00	29.909 
06:50	55.7	55.7	55.7	96	54.6	0	1	112	0.00	29.909 
06:55	55.7	55.7	55.7	96	54.6	0	0	---	0.00	29.909 
07:00	55.9	55.9	55.9	96	54.8	0	1	112	0.00	29.907 
07:05	55.9	55.9	55.9	96	54.8	0	1	112	0.00	29.907 
07:10	55.9	55.9	55.9	96	54.8	0	0	---	0.00	29.907 
07:15	56.0	56.0	56.0	96	54.9	0	1	112	0.00	29.908 
07:20	56.0	56.0	56.0	97	55.2	0	1	112	0.00	29.908 
07:25	56.0	56.0	56.0	96	54.9	0	0	---	0.00	29.908 
07:30	56.0	56.0	56.0	97	55.2	0	0	---	0.00	29.909 
07:35	56.0	56.0	56.0	96	54.9	0	0	---	0.00	29.909 
07:40	55.9	55.9	55.9	96	54.8	0	0	---	0.00	29.909 
07:45	55.9	55.9	55.9	96	54.8	0	0	---	0.00	29.907 
07:50	55.9	55.9	55.9	96	54.8	0	0	---	0.00	29.907 
07:55	56.3	56.3	56.3	97	55.5	0	2	112	0.00	29.907 
08:00	57.0	57.0	57.0	97	56.2	0	1	112	0.00	29.905 
08:05	57.8	57.8	57.8	97	57.0	0	3	112	0.00	29.905 
08:10	58.4	58.4	58.4	97	57.5	0	2	112	0.00	29.905 
08:15	58.9	58.9	58.9	97	58.0	0	1	135	0.00	29.912 
08:20	59.3	59.3	59.3	97	58.4	0	2	135	0.00	29.912 
08:25	59.6	59.6	59.6	97	58.7	0	2	135	0.00	29.912 
08:30	59.9	59.9	59.9	97	59.0	0	3	68	0.00	29.908 
08:35	60.4	60.4	60.4	95	59.0	0	2	68	0.00	29.908 
08:40	60.9	60.9	60.9	92	58.6	1	3	68	0.00	29.908 
08:45	61.2	61.2	61.2	90	58.2	1	4	202	0.00	29.907 
08:50	61.5	61.5	61.5	89	58.2	0	2	45	0.00	29.907 
08:55	62.0	62.0	62.0	88	58.4	0	2	45	0.00	29.907 
09:00	62.1	62.1	62.1	87	58.2	1	4	90	0.00	29.905 
09:05	62.4	62.4	62.4	87	58.5	1	3	292	0.00	29.905 
09:10	62.7	62.7	62.7	87	58.8	1	6	68	0.00	29.905 
09:15	63.1	63.1	63.1	86	58.8	1	5	248	0.00	29.907 
09:20	63.4	63.4	63.4	86	59.1	1	4	225	0.00	29.907 
09:25	63.9	63.9	63.9	85	59.3	0	2	112	0.00	29.907 
09:30	64.3	64.3	64.3	84	59.4	1	3	315	0.00	29.899 
09:35	64.7	64.7	64.7	83	59.4	2	7	248	0.00	29.899 
09:40	65.2	65.2	65.2	82	59.6	1	4	22	0.00	29.899 
09:45	65.8	65.8	65.8	82	60.1	1	3	45	0.00	29.891 
09:50	66.3	66.3	66.3	80	59.9	1	5	135	0.00	29.891 
09:55	66.6	66.6	66.6	78	59.5	2	4	68	0.00	29.891 
10:00	66.6	66.6	66.6	78	59.5	2	7	90	0.00	29.879 
10:05	66.8	66.8	66.8	79	60.1	1	5	68	0.00	29.879 
10:10	66.9	66.9	66.9	78	59.8	1	3	45	0.00	29.879 
10:15	67.4	67.4	67.4	77	59.9	1	4	45	0.00	29.875 
10:20	67.9	67.9	67.9	76	60.0	1	4	90	0.00	29.875 
10:25	68.6	68.6	68.6	75	60.3	1	4	68	0.00	29.875 
10:30	69.4	69.4	69.4	75	61.1	1	5	248	0.00	29.871 
10:35	70.1	70.1	70.1	73	61.0	1	7	112	0.00	29.871 
10:40	70.8	70.8	70.8	73	61.7	2	4	135	0.00	29.871 
10:45	71.1	71.1	71.1	72	61.6	2	4	112	0.00	29.870 
10:50	71.6	71.6	71.6	71	61.7	2	5	112	0.00	29.870 
10:55	72.0	72.0	72.0	71	62.1	3	7	112	0.00	29.870 
11:00	72.5	72.5	72.5	68	61.3	2	5	0	0.00	29.864 
11:05	72.7	72.7	72.7	67	61.1	2	5	68	0.00	29.864 
11:10	73.0	73.0	73.0	67	61.4	1	4	90	0.00	29.864 
11:15	73.2	73.2	73.2	66	61.1	2	6	112	0.00	29.863 
11:20	73.3	73.3	73.3	65	60.8	2	5	270	0.00	29.863 
11:25	73.3	73.3	73.3	68	62.1	1	3	22	0.00	29.863 
11:30	73.5	73.5	73.5	67	61.9	1	4	180	0.00	29.865 
11:35	73.7	73.7	73.7	67	62.0	1	3	248	0.00	29.865 
11:40	73.9	73.9	73.9	65	61.4	2	5	248	0.00	29.865 
11:45	73.9	73.9	73.9	65	61.4	2	6	248	0.00	29.863 
11:50	73.9	73.9	73.9	64	60.9	2	6	248	0.00	29.863 
11:55	73.7	73.7	73.7	65	61.2	2	5	270	0.00	29.863 
12:00	73.9	73.9	73.9	66	61.8	1	3	248	0.00	29.857 
12:05	74.4	74.4	74.4	66	62.3	1	3	0	0.00	29.857 
12:10	74.7	74.7	74.7	66	62.6	2	9	90	0.00	29.857 
12:15	75.3	75.3	77.3	65	62.7	1	4	90	0.00	29.840 
12:20	75.3	75.3	77.4	64	62.3	2	5	315	0.00	29.840 
12:25	75.6	75.6	77.5	66	63.4	1	4	112	0.00	29.840 
12:30	75.8	75.8	77.8	63	62.3	2	6	112	0.00	29.830 
12:35	76.5	76.5	78.3	66	64.3	1	3	248	0.00	29.830 
12:40	76.8	76.8	78.6	61	62.3	2	6	90	0.00	29.830 
12:45	77.0	77.0	78.8	62	63.0	2	6	68	0.00	29.824 
12:50	77.2	77.2	79.0	62	63.2	2	6	68	0.00	29.824 
12:55	77.4	77.4	79.1	61	62.9	2	10	270	0.00	29.824 
13:00	77.9	77.9	79.6	60	62.9	2	10	248	0.00	29.820 
13:05	78.3	78.3	80.1	62	64.2	1	9	68	0.00	29.820 
13:10	78.8	78.8	80.5	60	63.7	1	5	90	0.00	29.820 
13:15	79.2	79.2	80.7	58	63.1	2	5	68	0.00	29.811 
13:20	79.4	79.4	80.9	57	62.8	2	5	90	0.00	29.811 
13:25	79.4	79.4	81.1	60	64.3	2	7	270	0.00	29.811 
13:30	79.6	79.6	81.1	57	63.0	2	6	0	0.00	29.801 
13:35	79.8	79.8	81.7	61	65.1	2	5	112	0.00	29.801 
13:40	80.1	80.1	81.6	57	63.5	2	5	90	0.00	29.801 
13:45	80.5	80.5	82.3	59	64.8	1	5	90	0.00	29.798 
13:50	80.7	80.7	82.3	57	64.0	2	9	90	0.00	29.798 
13:55	80.9	80.9	82.8	59	65.2	2	5	90	0.00	29.798 
14:00	81.1	81.1	83.2	60	65.9	2	10	90	0.00	29.789 
14:05	81.4	81.4	83.6	60	66.2	2	5	90	0.00	29.789 
14:10	82.0	82.0	84.1	58	65.7	1	4	292	0.00	29.789 
14:15	82.4	82.4	84.6	58	66.1	3	9	248	0.00	29.786 
14:20	82.2	82.2	83.8	55	64.4	3	6	270	0.00	29.786 
14:25	82.4	82.4	84.2	56	65.1	4	9	270	0.00	29.786 
14:30	82.4	82.4	84.4	57	65.6	3	6	270	0.00	29.775 
14:35	82.8	82.8	84.6	55	65.0	3	7	248	0.00	29.775 
14:40	83.0	83.0	85.1	56	65.7	3	6	90	0.00	29.775 
14:45	83.2	83.2	85.8	58	66.9	2	6	0	0.00	29.771 
14:50	83.2	83.2	85.3	56	65.8	3	6	270	0.00	29.771 
14:55	83.4	83.4	85.2	54	65.0	3	9	270	0.00	29.771 
15:00	83.4	83.4	85.6	56	66.0	2	7	270	0.00	29.770 
15:05	83.2	83.2	85.1	55	65.3	3	10	112	0.00	29.770 
15:10	83.0	83.0	85.1	56	65.7	2	10	68	0.00	29.770 
15:15	82.8	82.8	85.0	57	66.0	2	5	90	0.00	29.757 
15:20	82.8	82.8	85.0	57	66.0	2	6	90	0.00	29.757 
15:25	82.8	82.8	84.8	56	65.5	2	9	90	0.00	29.757 
15:30	82.8	82.8	84.8	56	65.5	2	7	270	0.00	29.744 
15:35	82.8	82.8	85.0	57	66.0	2	9	270	0.00	29.744 
15:40	83.0	83.0	85.1	56	65.7	3	7	270	0.00	29.744 
15:45	83.0	83.0	85.3	57	66.2	2	9	270	0.00	29.743 
15:50	83.2	83.2	85.3	56	65.8	3	11	248	0.00	29.743 
15:55	83.2	83.2	85.6	57	66.4	2	5	248	0.00	29.743 
16:00	83.4	83.4	85.6	56	66.0	2	10	270	0.00	29.736 
16:05	83.2	83.2	85.1	55	65.3	2	7	248	0.00	29.736 
16:10	83.2	83.2	85.1	55	65.3	3	7	248	0.00	29.736 
16:15	83.0	83.0	85.1	56	65.7	2	9	248	0.00	29.726 
16:20	82.8	82.8	84.8	56	65.5	3	7	270	0.00	29.726 
16:25	82.8	82.8	84.4	54	64.4	3	9	270	0.00	29.726 
16:30	82.8	82.8	84.6	55	65.0	3	7	90	0.00	29.725 
16:35	83.0	83.0	85.3	57	66.2	2	7	248	0.00	29.725 
16:40	82.8	82.8	84.8	56	65.5	3	9	248	0.00	29.725 
16:45	82.6	82.6	84.3	55	64.8	4	12	0	0.00	29.725 
16:50	82.6	82.6	84.7	57	65.8	2	7	225	0.00	29.725 
16:55	82.4	82.4	84.1	55	64.6	3	9	248	0.00	29.725 
17:00	82.4	82.4	84.4	57	65.6	3	9	68	0.00	29.725 
17:05	82.2	82.2	84.0	56	64.9	3	7	270	0.00	29.725 
17:10	82.2	82.2	83.8	55	64.4	4	7	248	0.00	29.725 
17:15	82.2	82.2	84.0	56	64.9	3	8	270	0.00	29.723 
17:20	82.4	82.4	84.4	57	65.6	2	7	270	0.00	29.723 
17:25	82.6	82.6	84.7	57	65.8	3	7	248	0.00	29.723 
17:30	82.4	82.4	84.1	55	64.6	3	9	270	0.00	29.732 
17:35	82.4	82.4	84.1	55	64.6	3	7	270	0.00	29.732 
17:40	82.0	82.0	83.9	57	65.2	3	10	270	0.00	29.732 
17:45	81.8	81.8	83.5	56	64.5	2	10	248	0.00	29.730 
17:50	81.8	81.8	83.5	56	64.5	2	13	248	0.00	29.730 
17:55	81.6	81.6	83.4	57	64.9	3	10	248	0.00	29.730 
18:00	81.4	81.4	83.3	58	65.2	2	4	315	0.00	29.734 
18:05	81.4	81.4	83.0	56	64.2	2	5	270	0.00	29.734 
18:10	81.2	81.2	82.9	57	64.5	2	5	270	0.00	29.734 
18:15	81.2	81.2	83.0	58	65.0	1	5	270	0.00	29.729 
18:20	81.2	81.2	83.0	58	65.0	3	7	248	0.00	29.729 
18:25	81.1	81.1	82.9	58	64.9	1	4	225	0.00	29.729 
18:30	81.1	81.1	83.0	59	65.4	1	4	248	0.00	29.725 
18:35	81.1	81.1	82.9	58	64.9	2	5	112	0.00	29.725 
18:40	80.9	80.9	82.8	59	65.2	1	3	292	0.00	29.725 
18:45	80.5	80.5	82.3	59	64.8	2	5	248	0.00	29.726 
18:50	80.3	80.3	82.1	59	64.6	2	3	270	0.00	29.726 
18:55	80.1	80.1	81.7	58	64.0	2	5	270	0.00	29.726 
19:00	79.9	79.9	81.6	59	64.3	1	3	248	0.00	29.728 
19:05	79.6	79.6	81.4	61	64.9	1	4	248	0.00	29.728 
19:10	79.2	79.2	81.0	61	64.6	0	2	248	0.00	29.728 
19:15	78.8	78.8	80.6	62	64.7	0	1	248	0.00	29.726 
19:20	78.6	78.6	80.4	62	64.5	0	1	248	0.00	29.726 
19:25	78.3	78.3	80.1	63	64.6	0	3	248	0.00	29.726 
19:30	78.1	78.1	79.9	64	64.9	0	2	112	0.00	29.729 
19:35	77.7	77.7	79.5	64	64.5	0	2	112	0.00	29.729 
19:40	77.6	77.6	79.4	64	64.4	0	3	292	0.00	29.729 
19:45	77.6	77.6	79.4	65	64.9	0	1	292	0.00	29.729 
19:50	77.2	77.2	79.0	64	64.1	1	5	248	0.00	29.729 
19:55	77.2	77.2	79.0	64	64.1	0	3	248	0.00	29.729 
20:00	77.0	77.0	78.8	65	64.3	0	2	248	0.00	29.726 
20:05	76.8	76.8	78.6	65	64.1	0	1	248	0.00	29.726 
20:10	76.7	76.7	78.5	65	64.0	0	2	248	0.00	29.726 
20:15	76.3	76.3	78.1	66	64.1	0	3	68	0.00	29.721 
20:20	76.0	76.0	77.8	67	64.2	0	1	68	0.00	29.721 
20:25	75.8	75.8	77.6	68	64.5	0	1	68	0.00	29.721 
20:30	75.6	75.6	77.4	68	64.3	0	1	68	0.00	29.719 
20:35	75.4	75.4	77.2	68	64.1	0	1	68	0.00	29.719 
20:40	75.3	75.3	77.0	69	64.4	0	2	68	0.00	29.719 
20:45	75.1	75.1	76.9	69	64.2	0	2	68	0.00	29.714 
20:50	75.1	75.1	76.9	68	63.8	1	3	68	0.00	29.714 
20:55	75.3	75.3	77.1	68	64.0	1	3	68	0.00	29.714 
21:00	75.3	75.3	77.1	68	64.0	1	2	270	0.00	29.714 
21:05	75.4	75.4	77.2	68	64.1	1	4	90	0.00	29.714 
21:10	75.3	75.3	77.1	68	64.0	1	4	90	0.00	29.714 
21:15	75.4	75.4	77.3	67	63.7	2	5	22	0.00	29.710 
21:20	75.4	75.4	77.3	67	63.7	2	6	90	0.00	29.710 
21:25	75.4	75.4	77.3	66	63.2	2	9	90	0.00	29.710 
21:30	75.4	75.4	77.3	66	63.2	1	3	45	0.00	29.722 
21:35	75.4	75.4	77.3	66	63.2	1	7	248	0.00	29.722 
21:40	75.4	75.4	77.4	65	62.8	2	7	248	0.00	29.722 
21:45	75.6	75.6	77.5	65	63.0	1	6	248	0.00	29.726 
21:50	75.4	75.4	77.4	65	62.8	1	6	248	0.00	29.726 
21:55	75.4	75.4	77.4	65	62.8	3	10	270	0.00	29.726 
22:00	75.4	75.4	77.4	65	62.8	2	6	270	0.00	29.727 
22:05	75.4	75.4	77.4	65	62.8	2	5	248	0.00	29.727 
22:10	75.3	75.3	77.3	65	62.7	2	5	248	0.00	29.727 
22:15	75.3	75.3	77.3	65	62.7	1	4	248	0.00	29.721 
22:20	75.1	75.1	77.1	65	62.5	1	9	45	0.00	29.721 
22:25	74.9	74.9	74.9	66	62.8	1	4	270	0.00	29.721 
22:30	74.9	74.9	74.9	67	63.2	1	4	270	0.00	29.720 
22:35	74.7	74.7	74.7	67	63.0	1	6	0	0.00	29.720 
22:40	74.6	74.6	74.6	67	62.9	1	4	45	0.00	29.720 
22:45	74.4	74.4	74.4	67	62.7	1	4	270	0.00	29.718 
22:50	74.4	74.4	74.4	67	62.7	1	4	270	0.00	29.718 
22:55	74.4	74.4	74.4	67	62.7	1	3	68	0.00	29.718 
23:00	74.2	74.2	74.2	67	62.5	1	4	45	0.00	29.705 
23:05	74.2	74.2	74.2	67	62.5	1	7	90	0.00	29.705 
23:10	74.2	74.2	74.2	67	62.5	1	6	248	0.00	29.705 
23:15	74.2	74.2	74.2	67	62.5	1	4	292	0.00	29.701 
23:20	74.4	74.4	74.4	67	62.7	1	4	90	0.00	29.701 
23:25	74.4	74.4	74.4	66	62.3	2	6	112	0.00	29.701 
23:30	74.4	74.4	74.4	66	62.3	2	7	135	0.00	29.690 
23:35	74.4	74.4	74.4	66	62.3	2	4	90	0.00	29.690 
23:40	74.4	74.4	74.4	67	62.7	1	4	68	0.00	29.690 
23:45	74.2	74.2	74.2	67	62.5	1	5	270	0.00	29.691 
23:50	74.2	74.2	74.2	67	62.5	1	4	112	0.00	29.691 
23:55	74.2	74.2	74.2	67	62.5	1	5	315	0.00	29.691 

CoCoRaHS
IN-AL-39
A2 Web Hosting
Creative Commons License
GoDaddy
Look for:

loaded 2017-12-11 14:14:49 • last modified 2010-11-18 10:43:29
Privacy PolicyDisclaimer
• wx.awcolley.com is powered by PmWiki v.2002016 •
• all content (unless otherwise noted) © 2017 A W Colley